createdAt,value
2023-04-05T00:03:25.950Z,5.44
2023-04-05T00:08:32.153Z,5.39
2023-04-05T00:13:37.917Z,5.50
2023-04-05T00:18:46.252Z,5.56
2023-04-05T00:23:54.057Z,5.56
2023-04-05T00:28:59.549Z,5.64
2023-04-05T00:34:06.903Z,5.69
2023-04-05T00:39:12.414Z,5.56
2023-04-05T00:44:18.086Z,5.62
2023-04-05T00:49:23.657Z,5.53
2023-04-05T00:54:30.827Z,5.71
2023-04-05T00:59:36.412Z,5.68
2023-04-05T01:04:45.214Z,5.63
2023-04-05T01:09:59.730Z,5.53
2023-04-05T01:15:05.679Z,5.56
2023-04-05T01:20:13.097Z,5.65
2023-04-05T01:25:37.228Z,5.64
2023-04-05T01:30:45.988Z,5.70
2023-04-05T01:36:11.025Z,5.67
2023-04-05T01:41:17.258Z,5.73
2023-04-05T01:46:24.557Z,5.68
2023-04-05T01:51:31.209Z,5.69
2023-04-05T01:56:38.440Z,5.76
2023-04-05T02:01:43.885Z,5.63
2023-04-05T02:06:49.332Z,5.58
2023-04-05T02:11:54.749Z,5.49
2023-04-05T02:17:01.825Z,5.58
2023-04-05T02:22:08.293Z,5.51
2023-04-05T02:27:13.793Z,5.64
2023-04-05T02:32:19.312Z,5.68
2023-04-05T02:37:26.278Z,5.66
2023-04-05T02:42:31.760Z,5.60
2023-04-05T02:47:37.435Z,5.60
2023-04-05T02:52:43.178Z,5.66
2023-04-05T02:57:48.752Z,5.51
2023-04-05T03:02:56.886Z,5.54
2023-04-05T03:08:02.512Z,5.53
2023-04-05T03:13:11.922Z,5.56
2023-04-05T03:18:20.262Z,5.43
2023-04-05T03:23:30.976Z,5.31
2023-04-05T03:28:36.770Z,5.38
2023-04-05T03:33:44.437Z,5.47
2023-04-05T03:38:51.889Z,5.47
2023-04-05T03:43:59.472Z,5.45
2023-04-05T03:49:05.155Z,5.45
2023-04-05T03:54:10.567Z,5.28
2023-04-05T03:59:16.898Z,5.34
2023-04-05T04:04:22.978Z,5.44
2023-04-05T04:09:29.921Z,5.49
2023-04-05T04:14:37.154Z,5.43
2023-04-05T04:20:00.875Z,5.43
2023-04-05T04:25:20.633Z,5.34
2023-04-05T04:30:35.093Z,5.46
2023-04-05T04:35:47.007Z,5.39
2023-04-05T04:41:12.797Z,5.36
2023-04-05T04:46:24.416Z,5.20
2023-04-05T04:51:35.641Z,5.33
2023-04-05T04:56:41.147Z,5.26
2023-04-05T05:01:47.046Z,5.12
2023-04-05T05:06:54.960Z,5.00
2023-04-05T05:12:01.907Z,5.01
2023-04-05T05:17:08.803Z,4.93
2023-04-05T05:22:14.316Z,4.93
2023-04-05T05:27:19.826Z,4.76
2023-04-05T05:32:25.476Z,4.70
2023-04-05T05:37:32.951Z,4.83
2023-04-05T05:42:38.448Z,4.83
2023-04-05T05:47:44.019Z,4.79
2023-04-05T05:52:49.582Z,4.81
2023-04-05T05:57:55.362Z,4.78
2023-04-05T06:03:04.919Z,4.75
2023-04-05T06:08:10.678Z,4.77
2023-04-05T06:13:16.354Z,4.85
2023-04-05T06:18:22.246Z,4.85
2023-04-05T06:23:27.727Z,4.90
2023-04-05T06:28:33.332Z,4.84
2023-04-05T06:33:38.759Z,5.14
2023-04-05T06:38:44.338Z,5.30
2023-04-05T06:43:49.868Z,5.30
2023-04-05T06:48:55.706Z,5.36
2023-04-05T06:54:01.225Z,5.60
2023-04-05T06:59:06.764Z,5.59
2023-04-05T07:04:12.396Z,5.74
2023-04-05T07:09:18.101Z,5.85
2023-04-05T07:14:24.171Z,5.89
2023-04-05T07:19:29.780Z,6.02
2023-04-05T07:24:35.724Z,6.06
2023-04-05T07:29:44.564Z,6.17
2023-04-05T07:34:51.051Z,6.42
2023-04-05T07:39:58.493Z,6.36
2023-04-05T07:45:04.107Z,6.21
2023-04-05T07:50:12.203Z,6.46
2023-04-05T07:55:17.945Z,6.54
2023-04-05T08:00:23.965Z,6.65
2023-04-05T08:05:29.816Z,6.49
2023-04-05T08:10:36.781Z,6.45
2023-04-05T08:15:42.314Z,6.37
2023-04-05T08:20:52.969Z,6.46
2023-04-05T08:25:58.638Z,6.62
2023-04-05T08:31:04.077Z,6.73
2023-04-05T08:36:11.021Z,6.38
2023-04-05T08:41:21.945Z,6.81
2023-04-05T08:46:30.913Z,6.93
2023-04-05T08:51:39.487Z,7.06
2023-04-05T08:56:49.186Z,7.25
2023-04-05T09:01:56.149Z,6.68
2023-04-05T09:07:04.525Z,6.83
2023-04-05T09:12:10.700Z,7.07
2023-04-05T09:17:21.054Z,7.19
2023-04-05T09:22:26.557Z,7.50
2023-04-05T09:27:32.672Z,7.02
2023-04-05T09:32:38.409Z,6.85
2023-04-05T09:37:47.042Z,6.78
2023-04-05T09:42:54.242Z,6.47
2023-04-05T09:48:00.084Z,6.49
2023-04-05T09:53:15.091Z,6.69
2023-04-05T09:58:22.321Z,6.34
2023-04-05T10:03:28.297Z,6.48
2023-04-05T10:08:34.080Z,6.61
2023-04-05T10:13:41.498Z,6.88
2023-04-05T10:18:49.995Z,6.80
2023-04-05T10:24:04.304Z,6.69
2023-04-05T10:29:13.696Z,6.59
2023-04-05T10:34:34.370Z,6.80
2023-04-05T10:39:45.889Z,6.99
2023-04-05T10:45:00.299Z,6.99
2023-04-05T10:50:10.052Z,7.22
2023-04-05T10:55:18.218Z,7.24
2023-04-05T11:00:24.824Z,7.60
2023-04-05T11:05:33.268Z,7.65
2023-04-05T11:10:43.028Z,7.59
2023-04-05T11:15:50.294Z,7.16
2023-04-05T11:21:09.274Z,7.26
2023-04-05T11:26:14.900Z,7.52
2023-04-05T11:31:23.722Z,7.54
2023-04-05T11:36:35.137Z,7.65
2023-04-05T11:41:40.855Z,7.75
2023-04-05T11:46:48.254Z,8.11
2023-04-05T11:51:54.961Z,7.88
2023-04-05T11:57:00.929Z,8.35
2023-04-05T12:02:09.177Z,8.27
2023-04-05T12:07:17.468Z,8.49
2023-04-05T12:12:25.350Z,8.70
2023-04-05T12:17:42.577Z,8.62
2023-04-05T12:22:49.689Z,8.91
2023-04-05T12:27:55.494Z,8.99
2023-04-05T12:33:03.412Z,9.49
2023-04-05T12:38:10.617Z,9.80
2023-04-05T12:43:17.689Z,9.97
2023-04-05T12:48:27.063Z,9.95
2023-04-05T12:53:34.212Z,10.52
2023-04-05T12:58:40.427Z,10.58
2023-04-05T13:03:48.324Z,10.14
2023-04-05T13:08:53.643Z,10.50
2023-04-05T13:13:59.419Z,10.68
2023-04-05T13:19:04.930Z,10.36
2023-04-05T13:24:12.774Z,10.12
2023-04-05T13:29:17.973Z,10.26
2023-04-05T13:34:23.602Z,10.32
2023-04-05T13:39:29.178Z,10.12
2023-04-05T13:44:34.864Z,9.94
2023-04-05T13:49:40.390Z,10.26
2023-04-05T13:54:45.855Z,10.44
2023-04-05T13:59:51.426Z,10.14
2023-04-05T14:04:57.082Z,10.46
2023-04-05T14:10:02.785Z,10.36
2023-04-05T14:15:09.092Z,10.30
2023-04-05T14:20:14.680Z,9.84
2023-04-05T14:25:21.750Z,9.95
2023-04-05T14:30:27.566Z,9.74
2023-04-05T14:35:33.102Z,9.96
2023-04-05T14:40:39.249Z,10.10
2023-04-05T14:45:46.601Z,9.99
2023-04-05T14:50:52.189Z,9.74
2023-04-05T14:55:57.899Z,9.68
2023-04-05T15:01:03.695Z,9.60
2023-04-05T15:06:09.213Z,9.46
2023-04-05T15:11:14.875Z,9.67
2023-04-05T15:16:20.742Z,9.89
2023-04-05T15:21:27.069Z,9.96
2023-04-05T15:26:32.552Z,9.98
2023-04-05T15:31:38.113Z,9.97
2023-04-05T15:36:43.636Z,9.56
2023-04-05T15:41:49.608Z,9.78
2023-04-05T15:47:05.013Z,9.65
2023-04-05T15:52:11.869Z,9.79
2023-04-05T15:57:17.367Z,10.20
2023-04-05T16:02:22.970Z,10.71
2023-04-05T16:07:28.497Z,10.94
2023-04-05T16:12:34.385Z,10.69
2023-04-05T16:17:39.833Z,10.55
2023-04-05T16:22:46.373Z,10.04
2023-04-05T16:27:52.215Z,9.92
2023-04-05T16:32:59.231Z,9.84
2023-04-05T16:38:07.566Z,9.55
2023-04-05T16:43:13.753Z,9.35
2023-04-05T16:48:19.350Z,9.18
2023-04-05T16:53:26.151Z,9.08
2023-04-05T16:58:31.692Z,9.00
2023-04-05T17:03:37.290Z,8.99
2023-04-05T17:08:42.923Z,8.98
2023-04-05T17:13:48.587Z,8.94
2023-04-05T17:18:54.272Z,8.87
2023-04-05T17:23:59.714Z,8.89
2023-04-05T17:29:05.694Z,8.84
2023-04-05T17:34:13.476Z,8.76
2023-04-05T17:39:19.056Z,8.78
2023-04-05T17:44:24.488Z,8.52
2023-04-05T17:49:30.638Z,8.65
2023-04-05T17:54:37.840Z,8.73
2023-04-05T17:59:43.859Z,8.69
2023-04-05T18:04:50.035Z,8.45
2023-04-05T18:09:55.743Z,8.41
2023-04-05T18:15:01.195Z,8.30
2023-04-05T18:20:07.836Z,8.27
2023-04-05T18:25:13.604Z,8.29
2023-04-05T18:30:19.093Z,8.35
2023-04-05T18:35:24.585Z,8.42
2023-04-05T18:40:30.084Z,8.43
2023-04-05T18:45:40.008Z,8.28
2023-04-05T18:50:46.011Z,8.27
2023-04-05T18:55:54.921Z,8.10
2023-04-05T19:01:04.367Z,8.15
2023-04-05T19:06:12.571Z,8.20
2023-04-05T19:11:18.966Z,8.22
2023-04-05T19:16:24.761Z,8.25
2023-04-05T19:21:31.084Z,8.19
2023-04-05T19:26:37.714Z,7.90
2023-04-05T19:31:43.304Z,7.80
2023-04-05T19:36:49.418Z,7.77
2023-04-05T19:41:54.942Z,7.73
2023-04-05T19:47:01.521Z,7.54
2023-04-05T19:52:09.562Z,7.47
2023-04-05T19:57:18.092Z,7.41
2023-04-05T20:02:29.358Z,7.38
2023-04-05T20:07:36.573Z,7.27
2023-04-05T20:12:42.072Z,7.14
2023-04-05T20:17:50.416Z,7.17
2023-04-05T20:22:56.114Z,7.23
2023-04-05T20:28:01.651Z,7.17
2023-04-05T20:33:10.332Z,7.06
2023-04-05T20:38:16.087Z,6.91
2023-04-05T20:43:21.546Z,6.80
2023-04-05T20:48:27.410Z,6.71
2023-04-05T20:53:33.430Z,6.56
2023-04-05T20:58:40.212Z,6.41
2023-04-05T21:03:45.756Z,6.14
2023-04-05T21:08:51.478Z,6.05
2023-04-05T21:13:56.906Z,5.90
2023-04-05T21:19:02.409Z,5.80
2023-04-05T21:24:08.571Z,5.84
2023-04-05T21:29:14.685Z,5.83
2023-04-05T21:34:20.191Z,5.85
2023-04-05T21:39:25.620Z,5.56
2023-04-05T21:44:31.070Z,5.49
2023-04-05T21:49:36.646Z,5.53
2023-04-05T21:54:42.517Z,5.61
2023-04-05T21:59:48.070Z,5.22
2023-04-05T22:04:53.824Z,5.22
2023-04-05T22:09:59.674Z,5.36
2023-04-05T22:15:06.104Z,5.46
2023-04-05T22:20:12.513Z,5.12
2023-04-05T22:25:18.222Z,5.12
2023-04-05T22:30:23.795Z,5.39
2023-04-05T22:35:29.309Z,5.66
2023-04-05T22:40:34.928Z,5.66
2023-04-05T22:45:40.805Z,5.72
2023-04-05T22:50:46.410Z,5.72
2023-04-05T22:55:52.447Z,5.39
2023-04-05T23:00:57.970Z,5.50
2023-04-05T23:06:03.484Z,5.50
2023-04-05T23:11:08.971Z,5.50
2023-04-05T23:16:14.495Z,5.53
2023-04-05T23:21:20.043Z,5.52
2023-04-05T23:26:25.644Z,5.61
2023-04-05T23:31:31.219Z,5.61
2023-04-05T23:36:36.885Z,5.38
2023-04-05T23:41:42.298Z,5.38
2023-04-05T23:46:47.883Z,5.37
2023-04-05T23:51:53.667Z,5.48
2023-04-05T23:56:59.243Z,5.48
